createdAt,value
2022-09-21T00:01:28.123Z,6.42
2022-09-21T00:04:02.295Z,6.30
2022-09-21T00:06:32.433Z,6.24
2022-09-21T00:08:59.230Z,6.18
2022-09-21T00:11:30.942Z,6.17
2022-09-21T00:14:10.707Z,6.13
2022-09-21T00:16:38.042Z,6.09
2022-09-21T00:19:06.833Z,6.09
2022-09-21T00:21:34.382Z,6.14
2022-09-21T00:24:04.468Z,6.17
2022-09-21T00:26:37.528Z,6.20
2022-09-21T00:29:05.048Z,6.21
2022-09-21T00:31:35.199Z,6.24
2022-09-21T00:34:03.611Z,6.24
2022-09-21T00:36:30.319Z,6.26
2022-09-21T00:39:03.954Z,6.26
2022-09-21T00:41:35.924Z,6.20
2022-09-21T00:44:24.074Z,6.02
2022-09-21T00:46:53.146Z,5.98
2022-09-21T00:49:21.891Z,5.97
2022-09-21T00:51:53.193Z,5.98
2022-09-21T00:54:51.152Z,6.01
2022-09-21T00:57:30.982Z,5.95
2022-09-21T01:00:01.370Z,5.86
2022-09-21T01:02:28.500Z,5.78
2022-09-21T01:04:58.483Z,5.73
2022-09-21T01:07:29.592Z,5.71
2022-09-21T01:10:00.377Z,5.76
2022-09-21T01:12:53.318Z,5.80
2022-09-21T01:15:35.546Z,5.86
2022-09-21T01:18:26.909Z,5.91
2022-09-21T01:20:58.639Z,5.95
2022-09-21T01:23:48.993Z,5.97
2022-09-21T01:26:29.218Z,5.97
2022-09-21T01:29:19.006Z,5.98
2022-09-21T01:32:05.462Z,5.98
2022-09-21T01:34:45.081Z,5.95
2022-09-21T01:37:21.765Z,5.93
2022-09-21T01:39:55.105Z,5.93
2022-09-21T01:42:27.714Z,5.93
2022-09-21T01:45:00.595Z,5.92
2022-09-21T01:47:31.597Z,5.94
2022-09-21T01:50:02.070Z,5.96
2022-09-21T01:52:41.942Z,5.97
2022-09-21T01:55:38.279Z,6.03
2022-09-21T01:58:17.584Z,6.02
2022-09-21T02:00:48.283Z,6.04
2022-09-21T02:03:36.514Z,6.09
2022-09-21T02:06:04.098Z,6.09
2022-09-21T02:08:35.292Z,6.06
2022-09-21T02:11:03.123Z,6.09
2022-09-21T02:13:37.707Z,6.13
2022-09-21T02:16:08.630Z,6.18
2022-09-21T02:18:43.637Z,6.26
2022-09-21T02:21:19.638Z,6.31
2022-09-21T02:24:06.956Z,6.35
2022-09-21T02:26:49.353Z,6.39
2022-09-21T02:29:47.266Z,6.40
2022-09-21T02:32:33.519Z,6.44
2022-09-21T02:35:08.073Z,6.48
2022-09-21T02:37:45.207Z,6.51
2022-09-21T02:40:35.163Z,6.50
2022-09-21T02:43:09.387Z,6.53
2022-09-21T02:45:45.241Z,6.51
2022-09-21T02:48:17.053Z,6.50
2022-09-21T02:50:54.378Z,6.51
2022-09-21T02:53:27.907Z,6.52
2022-09-21T02:55:58.150Z,6.53
2022-09-21T02:58:27.141Z,6.57
2022-09-21T03:00:56.690Z,6.60
2022-09-21T03:03:26.317Z,6.65
2022-09-21T03:05:55.534Z,6.68
2022-09-21T03:08:22.908Z,6.70
2022-09-21T03:10:50.856Z,6.73
2022-09-21T03:13:18.999Z,6.77
2022-09-21T03:15:46.563Z,6.82
2022-09-21T03:18:13.791Z,6.85
2022-09-21T03:20:48.442Z,6.86
2022-09-21T03:23:15.078Z,6.87
2022-09-21T03:25:45.682Z,6.92
2022-09-21T03:28:13.557Z,6.95
2022-09-21T03:30:40.647Z,6.96
2022-09-21T03:33:08.358Z,7.00
2022-09-21T03:35:35.019Z,7.01
2022-09-21T03:38:02.553Z,6.99
2022-09-21T03:40:29.331Z,6.97
2022-09-21T03:42:56.236Z,6.97
2022-09-21T03:45:23.193Z,6.97
2022-09-21T03:47:49.783Z,6.99
2022-09-21T03:50:16.711Z,7.00
2022-09-21T03:52:43.359Z,7.01
2022-09-21T03:55:10.038Z,7.03
2022-09-21T03:57:36.902Z,7.05
2022-09-21T04:00:06.665Z,7.06
2022-09-21T04:02:33.405Z,7.08
2022-09-21T04:05:00.138Z,7.08
2022-09-21T04:07:26.878Z,7.11
2022-09-21T04:09:54.085Z,7.10
2022-09-21T04:12:24.004Z,7.08
2022-09-21T04:14:50.589Z,7.06
2022-09-21T04:17:17.422Z,7.01
2022-09-21T04:19:47.906Z,6.97
2022-09-21T04:22:14.842Z,6.94
2022-09-21T04:24:41.511Z,6.91
2022-09-21T04:27:09.138Z,6.93
2022-09-21T04:29:36.357Z,6.95
2022-09-21T04:32:03.372Z,6.95
2022-09-21T04:34:31.210Z,6.98
2022-09-21T04:36:59.139Z,6.98
2022-09-21T04:39:26.431Z,6.99
2022-09-21T04:41:53.185Z,7.01
2022-09-21T04:44:19.861Z,7.02
2022-09-21T04:46:46.808Z,7.02
2022-09-21T04:49:13.502Z,7.02
2022-09-21T04:51:40.304Z,7.01
2022-09-21T04:54:06.934Z,7.01
2022-09-21T04:56:33.821Z,7.02
2022-09-21T04:59:00.685Z,7.00
2022-09-21T05:01:27.895Z,6.97
2022-09-21T05:03:57.758Z,6.93
2022-09-21T05:06:24.526Z,6.90
2022-09-21T05:09:09.502Z,6.89
2022-09-21T05:11:36.340Z,6.87
2022-09-21T05:14:03.345Z,6.89
2022-09-21T05:16:32.217Z,6.87
2022-09-21T05:18:58.904Z,6.86
2022-09-21T05:21:26.168Z,6.88
2022-09-21T05:23:52.797Z,6.89
2022-09-21T05:26:19.966Z,6.89
2022-09-21T05:28:46.953Z,6.91
2022-09-21T05:31:31.770Z,6.89
2022-09-21T05:34:17.042Z,6.85
2022-09-21T05:36:50.053Z,6.82
2022-09-21T05:39:17.058Z,6.80
2022-09-21T05:41:44.023Z,6.81
2022-09-21T05:44:14.464Z,6.80
2022-09-21T05:47:04.770Z,6.80
2022-09-21T05:49:49.884Z,6.83
2022-09-21T05:52:47.440Z,6.83
2022-09-21T05:55:52.053Z,6.83
2022-09-21T05:58:47.415Z,6.82
2022-09-21T06:01:28.321Z,6.83
2022-09-21T06:03:56.821Z,6.86
2022-09-21T06:06:23.589Z,6.93
2022-09-21T06:08:50.280Z,6.99
2022-09-21T06:11:17.238Z,7.04
2022-09-21T06:13:44.109Z,7.11
2022-09-21T06:16:11.493Z,7.16
2022-09-21T06:18:39.999Z,7.23
2022-09-21T06:21:12.789Z,7.30
2022-09-21T06:23:39.418Z,7.38
2022-09-21T06:26:09.153Z,7.45
2022-09-21T06:28:35.745Z,7.52
2022-09-21T06:31:05.213Z,7.57
2022-09-21T06:33:31.910Z,7.65
2022-09-21T06:36:01.074Z,7.70
2022-09-21T06:38:29.179Z,7.75
2022-09-21T06:41:00.849Z,7.80
2022-09-21T06:43:27.479Z,7.84
2022-09-21T06:46:04.169Z,7.88
2022-09-21T06:48:35.393Z,7.90
2022-09-21T06:51:04.115Z,7.94
2022-09-21T06:53:34.216Z,7.97
2022-09-21T06:56:05.971Z,8.01
2022-09-21T06:58:34.690Z,8.04
2022-09-21T07:01:14.512Z,8.07
2022-09-21T07:03:43.023Z,8.12
2022-09-21T07:06:18.124Z,8.17
2022-09-21T07:11:37.636Z,8.24
2022-09-21T07:14:07.486Z,8.27
2022-09-21T07:16:34.143Z,8.30
2022-09-21T07:19:10.739Z,8.36
2022-09-21T07:21:38.146Z,8.44
2022-09-21T07:24:11.208Z,8.58
2022-09-21T07:26:42.028Z,8.71
2022-09-21T07:29:08.755Z,8.84
2022-09-21T07:31:35.766Z,8.95
2022-09-21T07:34:02.542Z,9.01
2022-09-21T07:36:29.242Z,9.11
2022-09-21T07:38:58.094Z,9.20
2022-09-21T07:41:24.787Z,9.33
2022-09-21T07:43:52.228Z,9.44
2022-09-21T07:46:18.943Z,9.58
2022-09-21T07:48:50.955Z,9.71
2022-09-21T07:51:20.784Z,9.87
2022-09-21T07:53:56.689Z,10.12
2022-09-21T07:56:23.723Z,10.39
2022-09-21T07:59:08.667Z,10.69
2022-09-21T08:01:40.213Z,10.93
2022-09-21T08:04:11.206Z,11.15
2022-09-21T08:06:40.281Z,11.31
2022-09-21T08:09:08.577Z,11.41
2022-09-21T08:11:36.059Z,11.45
2022-09-21T08:14:06.207Z,11.49
2022-09-21T08:16:38.204Z,11.48
2022-09-21T08:19:05.478Z,11.54
2022-09-21T08:21:38.190Z,11.63
2022-09-21T08:24:05.157Z,11.67
2022-09-21T08:26:31.864Z,11.68
2022-09-21T08:29:01.331Z,11.77
2022-09-21T08:31:28.280Z,11.85
2022-09-21T08:33:59.553Z,11.83
2022-09-21T08:36:29.362Z,11.80
2022-09-21T08:38:57.009Z,11.79
2022-09-21T08:41:58.636Z,11.77
2022-09-21T08:44:51.293Z,11.79
2022-09-21T08:47:40.479Z,11.85
2022-09-21T08:50:38.080Z,12.07
2022-09-21T08:53:08.464Z,12.61
2022-09-21T08:55:35.282Z,13.17
2022-09-21T08:58:03.764Z,13.84
2022-09-21T09:00:38.246Z,14.42
2022-09-21T09:03:30.201Z,14.89
2022-09-21T09:06:26.671Z,15.10
2022-09-21T09:09:08.939Z,15.14
2022-09-21T09:11:54.452Z,14.90
2022-09-21T09:14:57.800Z,14.51
2022-09-21T09:17:49.324Z,14.26
2022-09-21T09:20:18.894Z,14.09
2022-09-21T09:23:00.571Z,14.01
2022-09-21T09:25:29.080Z,13.93
2022-09-21T09:28:05.250Z,13.92
2022-09-21T09:30:34.942Z,13.93
2022-09-21T09:33:19.977Z,13.93
2022-09-21T09:35:52.483Z,13.97
2022-09-21T09:38:32.096Z,13.97
2022-09-21T09:41:36.544Z,13.95
2022-09-21T09:44:31.568Z,14.01
2022-09-21T09:47:29.247Z,14.07
2022-09-21T09:50:08.022Z,14.13
2022-09-21T09:52:37.967Z,14.22
2022-09-21T09:55:27.380Z,14.28
2022-09-21T09:57:55.883Z,14.32
2022-09-21T10:00:23.062Z,14.37
2022-09-21T10:02:56.082Z,14.46
2022-09-21T10:05:45.388Z,14.56
2022-09-21T10:08:39.311Z,14.71
2022-09-21T10:11:09.170Z,14.85
2022-09-21T10:13:40.639Z,14.92
2022-09-21T10:16:15.403Z,14.87
2022-09-21T10:19:01.757Z,14.76
2022-09-21T10:21:35.638Z,14.67
2022-09-21T10:24:06.341Z,14.63
2022-09-21T10:26:42.158Z,14.61
2022-09-21T10:29:29.387Z,14.65
2022-09-21T10:32:03.474Z,14.74
2022-09-21T10:34:35.281Z,14.84
2022-09-21T10:37:23.027Z,14.90
2022-09-21T10:39:49.624Z,15.00
2022-09-21T10:42:18.974Z,15.10
2022-09-21T10:44:50.798Z,15.27
2022-09-21T10:47:41.018Z,15.40
2022-09-21T10:50:43.680Z,15.41
2022-09-21T10:53:10.213Z,15.27
2022-09-21T10:56:11.822Z,15.23
2022-09-21T10:58:39.847Z,15.28
2022-09-21T11:01:23.550Z,15.36
2022-09-21T11:04:03.134Z,15.40
2022-09-21T11:06:36.547Z,15.34
2022-09-21T11:09:12.526Z,15.23
2022-09-21T11:11:58.163Z,15.18
2022-09-21T11:14:27.602Z,15.24
2022-09-21T11:17:22.072Z,15.34
2022-09-21T11:20:03.171Z,15.48
2022-09-21T11:22:43.522Z,15.62
2022-09-21T11:25:32.418Z,15.79
2022-09-21T11:28:24.326Z,15.89
2022-09-21T11:31:14.713Z,15.97
2022-09-21T11:34:04.305Z,16.05
2022-09-21T11:36:36.716Z,16.08
2022-09-21T11:39:14.433Z,16.15
2022-09-21T11:41:53.781Z,16.23
2022-09-21T11:44:49.283Z,16.25
2022-09-21T11:47:24.783Z,16.23
2022-09-21T11:50:19.585Z,16.19
2022-09-21T11:52:52.899Z,16.12
2022-09-21T11:56:01.041Z,16.10
2022-09-21T11:58:40.861Z,16.04
2022-09-21T12:01:22.507Z,15.83
2022-09-21T12:03:57.808Z,15.70
2022-09-21T12:06:35.293Z,15.67
2022-09-21T12:09:34.641Z,15.63
2022-09-21T12:12:04.457Z,15.64
2022-09-21T12:14:46.366Z,15.68
2022-09-21T12:17:21.275Z,15.72
2022-09-21T12:20:18.041Z,15.80
2022-09-21T12:22:47.634Z,15.86
2022-09-21T12:25:40.904Z,15.87
2022-09-21T12:28:10.518Z,15.90
2022-09-21T12:30:42.537Z,15.84
2022-09-21T12:33:21.598Z,15.81
2022-09-21T12:35:55.084Z,15.78
2022-09-21T12:38:27.631Z,15.75
2022-09-21T12:41:18.842Z,15.72
2022-09-21T12:44:00.354Z,15.69
2022-09-21T12:46:52.917Z,15.67
2022-09-21T12:49:31.622Z,15.63
2022-09-21T12:52:06.858Z,15.60
2022-09-21T12:54:48.004Z,15.55
2022-09-21T12:57:53.669Z,15.48
2022-09-21T13:00:23.006Z,15.43
2022-09-21T13:03:10.434Z,15.37
2022-09-21T13:05:49.488Z,15.25
2022-09-21T13:08:19.199Z,15.21
2022-09-21T13:10:55.325Z,15.16
2022-09-21T13:13:30.420Z,15.10
2022-09-21T13:15:59.450Z,14.97
2022-09-21T13:18:38.003Z,14.82
2022-09-21T13:21:24.250Z,14.74
2022-09-21T13:24:03.181Z,14.72
2022-09-21T13:26:41.747Z,14.75
2022-09-21T13:29:32.134Z,14.75
2022-09-21T13:32:09.583Z,14.77
2022-09-21T13:34:39.143Z,14.81
2022-09-21T13:37:11.779Z,14.85
2022-09-21T13:39:50.441Z,14.91
2022-09-21T13:42:32.309Z,14.95
2022-09-21T13:45:05.131Z,15.01
2022-09-21T13:47:38.520Z,15.02
2022-09-21T13:50:38.399Z,15.08
2022-09-21T13:53:20.391Z,15.12
2022-09-21T13:56:00.946Z,15.14
2022-09-21T13:58:37.550Z,15.14
2022-09-21T14:01:35.582Z,15.16
2022-09-21T14:04:21.594Z,15.21
2022-09-21T14:06:52.186Z,15.22
2022-09-21T14:10:11.513Z,15.23
2022-09-21T14:12:45.485Z,15.21
2022-09-21T14:15:19.502Z,15.21
2022-09-21T14:18:12.227Z,15.22
2022-09-21T14:20:39.805Z,15.25
2022-09-21T14:23:16.287Z,15.27
2022-09-21T14:25:54.482Z,15.28
2022-09-21T14:28:27.595Z,15.31
2022-09-21T14:31:01.783Z,15.31
2022-09-21T14:33:35.500Z,15.30
2022-09-21T14:36:08.764Z,15.28
2022-09-21T14:38:45.424Z,15.27
2022-09-21T14:41:20.631Z,15.26
2022-09-21T14:43:52.339Z,15.23
2022-09-21T14:47:04.235Z,15.16
2022-09-21T14:49:52.592Z,15.06
2022-09-21T14:52:47.854Z,15.01
2022-09-21T14:55:25.973Z,14.93
2022-09-21T14:58:04.735Z,14.85
2022-09-21T15:00:43.645Z,14.83
2022-09-21T15:03:39.205Z,14.75
2022-09-21T15:07:00.882Z,14.66
2022-09-21T15:10:18.051Z,14.58
2022-09-21T15:12:54.332Z,14.47
2022-09-21T15:15:47.114Z,14.43
2022-09-21T15:18:22.041Z,14.45
2022-09-21T15:21:04.093Z,14.44
2022-09-21T15:23:41.239Z,14.43
2022-09-21T15:26:10.590Z,14.41
2022-09-21T15:29:07.910Z,14.36
2022-09-21T15:31:41.447Z,14.29
2022-09-21T15:34:10.983Z,14.26
2022-09-21T15:36:40.475Z,14.22
2022-09-21T15:39:20.875Z,14.21
2022-09-21T15:41:49.441Z,14.19
2022-09-21T15:44:23.985Z,14.17
2022-09-21T15:47:00.255Z,14.16
2022-09-21T15:49:29.802Z,14.12
2022-09-21T15:52:06.487Z,14.12
2022-09-21T15:54:37.089Z,14.11
2022-09-21T15:57:09.383Z,14.05
2022-09-21T15:59:36.078Z,14.01
2022-09-21T16:02:15.772Z,13.94
2022-09-21T16:04:52.772Z,13.89
2022-09-21T16:07:43.110Z,13.84
2022-09-21T16:10:48.999Z,13.74
2022-09-21T16:13:43.135Z,13.68
2022-09-21T16:16:15.008Z,13.66
2022-09-21T16:18:50.997Z,13.60
2022-09-21T16:21:20.838Z,13.57
2022-09-21T16:23:54.818Z,13.52
2022-09-21T16:26:35.254Z,13.46
2022-09-21T16:29:26.515Z,13.39
2022-09-21T16:32:18.965Z,13.32
2022-09-21T16:34:48.343Z,13.25
2022-09-21T16:37:28.117Z,13.18
2022-09-21T16:39:56.963Z,13.12
2022-09-21T16:42:27.901Z,13.05
2022-09-21T16:44:55.123Z,12.99
2022-09-21T16:47:26.819Z,12.96
2022-09-21T16:50:01.461Z,12.88
2022-09-21T16:52:29.490Z,12.78
2022-09-21T16:54:58.915Z,12.68
2022-09-21T16:57:26.603Z,12.60
2022-09-21T16:59:53.234Z,12.52
2022-09-21T17:02:20.016Z,12.44
2022-09-21T17:04:48.039Z,12.36
2022-09-21T17:07:15.612Z,12.30
2022-09-21T17:09:46.474Z,12.26
2022-09-21T17:12:17.877Z,12.23
2022-09-21T17:14:47.028Z,12.22
2022-09-21T17:17:17.214Z,12.20
2022-09-21T17:19:46.507Z,12.14
2022-09-21T17:22:17.297Z,12.09
2022-09-21T17:24:51.757Z,12.03
2022-09-21T17:27:26.830Z,11.96
2022-09-21T17:29:55.345Z,11.89
2022-09-21T17:32:24.692Z,11.80
2022-09-21T17:35:17.452Z,11.73
2022-09-21T17:37:47.082Z,11.68
2022-09-21T17:40:14.488Z,11.59
2022-09-21T17:42:46.574Z,11.53
2022-09-21T17:45:37.650Z,11.49
2022-09-21T17:48:05.245Z,11.45
2022-09-21T17:50:32.322Z,11.42
2022-09-21T17:53:17.989Z,11.37
2022-09-21T17:55:54.518Z,11.33
2022-09-21T17:58:59.843Z,11.27
2022-09-21T18:01:34.167Z,11.19
2022-09-21T18:04:01.197Z,11.15
2022-09-21T18:06:28.804Z,11.10
2022-09-21T18:08:55.971Z,11.04
2022-09-21T18:12:01.898Z,11.00
2022-09-21T18:14:31.690Z,10.93
2022-09-21T18:17:00.982Z,10.85
2022-09-21T18:19:27.626Z,10.81
2022-09-21T18:22:02.570Z,10.78
2022-09-21T18:24:33.697Z,10.74
2022-09-21T18:27:00.885Z,10.69
2022-09-21T18:29:40.880Z,10.64
2022-09-21T18:32:47.258Z,10.60
2022-09-21T18:35:51.118Z,10.57
2022-09-21T18:38:36.306Z,10.56
2022-09-21T18:41:39.278Z,10.52
2022-09-21T18:44:25.403Z,10.47
2022-09-21T18:47:00.818Z,10.39
2022-09-21T18:49:58.000Z,10.33
2022-09-21T18:52:40.737Z,10.25
2022-09-21T18:55:17.973Z,10.21
2022-09-21T18:57:45.455Z,10.16
2022-09-21T19:00:15.674Z,10.13
2022-09-21T19:02:59.056Z,10.07
2022-09-21T19:05:29.480Z,10.00
2022-09-21T19:08:11.353Z,9.98
2022-09-21T19:11:21.990Z,9.95
2022-09-21T19:14:04.993Z,9.93
2022-09-21T19:16:51.819Z,9.90
2022-09-21T19:19:37.030Z,9.89
2022-09-21T19:22:28.115Z,9.86
2022-09-21T19:25:19.227Z,9.82
2022-09-21T19:28:11.986Z,9.78
2022-09-21T19:30:39.748Z,9.72
2022-09-21T19:33:48.248Z,9.71
2022-09-21T19:36:09.621Z,9.68
2022-09-21T19:38:36.358Z,9.66
2022-09-21T19:41:05.414Z,9.62
2022-09-21T19:43:48.805Z,9.58
2022-09-21T19:46:41.779Z,9.58
2022-09-21T19:49:18.089Z,9.52
2022-09-21T19:51:49.685Z,9.49
2022-09-21T19:54:37.613Z,9.47
2022-09-21T19:57:41.478Z,9.45
2022-09-21T20:00:11.417Z,9.43
2022-09-21T20:03:14.157Z,9.40
2022-09-21T20:05:57.240Z,9.39
2022-09-21T20:08:33.763Z,9.33
2022-09-21T20:11:15.594Z,9.25
2022-09-21T20:13:47.715Z,9.21
2022-09-21T20:16:42.964Z,9.18
2022-09-21T20:19:57.786Z,9.15
2022-09-21T20:22:34.833Z,9.09
2022-09-21T20:25:25.415Z,9.00
2022-09-21T20:27:55.933Z,8.93
2022-09-21T20:30:28.499Z,8.92
2022-09-21T20:33:06.896Z,8.94
2022-09-21T20:35:34.617Z,8.99
2022-09-21T20:38:02.882Z,8.99
2022-09-21T20:40:32.426Z,8.99
2022-09-21T20:43:01.220Z,9.02
2022-09-21T20:45:28.508Z,8.99
2022-09-21T20:47:57.298Z,8.95
2022-09-21T20:50:33.364Z,8.90
2022-09-21T20:53:00.250Z,8.90
2022-09-21T20:55:28.253Z,8.91
2022-09-21T20:57:55.140Z,8.91
2022-09-21T21:00:21.801Z,8.90
2022-09-21T21:02:48.432Z,8.86
2022-09-21T21:05:15.121Z,8.76
2022-09-21T21:07:44.598Z,8.67
2022-09-21T21:10:16.549Z,8.58
2022-09-21T21:12:43.131Z,8.51
2022-09-21T21:15:11.527Z,8.54
2022-09-21T21:17:39.131Z,8.58
2022-09-21T21:20:07.183Z,8.60
2022-09-21T21:22:33.845Z,8.63
2022-09-21T21:25:00.794Z,8.65
2022-09-21T21:27:28.093Z,8.64
2022-09-21T21:29:55.405Z,8.67
2022-09-21T21:32:25.250Z,8.67
2022-09-21T21:34:53.122Z,8.67
2022-09-21T21:37:21.089Z,8.65
2022-09-21T21:39:48.021Z,8.66
2022-09-21T21:42:14.753Z,8.63
2022-09-21T21:44:41.770Z,8.62
2022-09-21T21:47:27.886Z,8.57
2022-09-21T21:49:55.159Z,8.56
2022-09-21T21:52:21.948Z,8.54
2022-09-21T21:54:48.543Z,8.52
2022-09-21T21:57:15.182Z,8.50
2022-09-21T21:59:43.297Z,8.47
2022-09-21T22:02:13.060Z,8.42
2022-09-21T22:04:50.070Z,8.37
2022-09-21T22:07:16.978Z,8.32
2022-09-21T22:09:46.695Z,8.32
2022-09-21T22:12:15.795Z,8.31
2022-09-21T22:14:49.009Z,8.32
2022-09-21T22:17:15.953Z,8.30
2022-09-21T22:19:45.679Z,8.31
2022-09-21T22:22:12.361Z,8.31
2022-09-21T22:24:39.269Z,8.28
2022-09-21T22:27:05.925Z,8.29
2022-09-21T22:29:32.740Z,8.28
2022-09-21T22:31:59.966Z,8.25
2022-09-21T22:34:26.702Z,8.21
2022-09-21T22:36:53.917Z,8.18
2022-09-21T22:39:20.576Z,8.14
2022-09-21T22:41:47.181Z,8.12
2022-09-21T22:44:13.801Z,8.08
2022-09-21T22:46:40.701Z,8.06
2022-09-21T22:49:07.834Z,8.04
2022-09-21T22:51:35.116Z,7.95
2022-09-21T22:54:01.819Z,7.86
2022-09-21T22:56:32.781Z,7.78
2022-09-21T22:59:04.171Z,7.77
2022-09-21T23:01:37.468Z,7.78
2022-09-21T23:04:24.431Z,7.77
2022-09-21T23:07:05.238Z,7.76
2022-09-21T23:09:32.009Z,7.76
2022-09-21T23:12:01.599Z,7.75
2022-09-21T23:14:29.542Z,7.73
2022-09-21T23:16:56.226Z,7.73
2022-09-21T23:19:22.810Z,7.70
2022-09-21T23:21:53.111Z,7.67
2022-09-21T23:24:20.313Z,7.68
2022-09-21T23:26:47.610Z,7.62
2022-09-21T23:29:19.570Z,7.57
2022-09-21T23:31:46.597Z,7.53
2022-09-21T23:34:16.946Z,7.47
2022-09-21T23:36:50.739Z,7.39
2022-09-21T23:39:18.656Z,7.29
2022-09-21T23:41:45.378Z,7.28
2022-09-21T23:44:12.215Z,7.29
2022-09-21T23:46:40.218Z,7.28
2022-09-21T23:49:07.339Z,7.29
2022-09-21T23:51:34.555Z,7.30
2022-09-21T23:54:01.485Z,7.30
2022-09-21T23:56:28.930Z,7.30
2022-09-21T23:58:56.369Z,7.30
